sensor_id;sensor_type;location;lat;lon;timestamp;P1;durP1;ratioP1;P2;durP2;ratioP2
18013;SDS011;9132;47.946;10.394;2022-07-22T00:00:16;12.90;;;11.38;;
18013;SDS011;9132;47.946;10.394;2022-07-22T00:02:43;11.98;;;10.85;;
18013;SDS011;9132;47.946;10.394;2022-07-22T00:05:09;11.90;;;10.70;;
18013;SDS011;9132;47.946;10.394;2022-07-22T00:07:36;12.23;;;11.23;;
18013;SDS011;9132;47.946;10.394;2022-07-22T00:10:03;11.75;;;10.55;;
18013;SDS011;9132;47.946;10.394;2022-07-22T00:12:29;12.25;;;11.15;;
18013;SDS011;9132;47.946;10.394;2022-07-22T00:14:55;12.82;;;11.55;;
18013;SDS011;9132;47.946;10.394;2022-07-22T00:17:23;12.30;;;11.10;;
18013;SDS011;9132;47.946;10.394;2022-07-22T00:19:49;12.80;;;10.93;;
18013;SDS011;9132;47.946;10.394;2022-07-22T00:22:16;13.73;;;11.55;;
18013;SDS011;9132;47.946;10.394;2022-07-22T00:24:42;11.80;;;10.57;;
18013;SDS011;9132;47.946;10.394;2022-07-22T00:27:08;13.05;;;11.70;;
18013;SDS011;9132;47.946;10.394;2022-07-22T00:29:35;12.45;;;11.30;;
18013;SDS011;9132;47.946;10.394;2022-07-22T00:32:01;13.40;;;12.10;;
18013;SDS011;9132;47.946;10.394;2022-07-22T00:34:29;13.10;;;11.05;;
18013;SDS011;9132;47.946;10.394;2022-07-22T00:36:55;12.80;;;11.50;;
18013;SDS011;9132;47.946;10.394;2022-07-22T00:39:21;15.65;;;12.43;;
18013;SDS011;9132;47.946;10.394;2022-07-22T00:41:48;14.68;;;12.40;;
18013;SDS011;9132;47.946;10.394;2022-07-22T00:44:14;13.63;;;12.23;;
18013;SDS011;9132;47.946;10.394;2022-07-22T00:46:40;13.07;;;11.75;;
18013;SDS011;9132;47.946;10.394;2022-07-22T00:49:07;13.30;;;12.00;;
18013;SDS011;9132;47.946;10.394;2022-07-22T00:51:36;13.35;;;11.88;;
18013;SDS011;9132;47.946;10.394;2022-07-22T00:54:04;14.75;;;12.43;;
18013;SDS011;9132;47.946;10.394;2022-07-22T00:56:31;13.35;;;12.05;;
18013;SDS011;9132;47.946;10.394;2022-07-22T00:58:57;13.65;;;12.27;;
18013;SDS011;9132;47.946;10.394;2022-07-22T01:01:25;13.55;;;12.25;;
18013;SDS011;9132;47.946;10.394;2022-07-22T01:03:51;13.75;;;12.35;;
18013;SDS011;9132;47.946;10.394;2022-07-22T01:06:18;13.30;;;11.95;;
18013;SDS011;9132;47.946;10.394;2022-07-22T01:08:45;14.05;;;12.10;;
18013;SDS011;9132;47.946;10.394;2022-07-22T01:11:13;12.63;;;11.52;;
18013;SDS011;9132;47.946;10.394;2022-07-22T01:13:39;13.18;;;11.98;;
18013;SDS011;9132;47.946;10.394;2022-07-22T01:16:06;12.95;;;11.65;;
18013;SDS011;9132;47.946;10.394;2022-07-22T01:18:33;13.18;;;11.88;;
18013;SDS011;9132;47.946;10.394;2022-07-22T01:21:01;13.38;;;12.07;;
18013;SDS011;9132;47.946;10.394;2022-07-22T01:23:28;12.85;;;11.65;;
18013;SDS011;9132;47.946;10.394;2022-07-22T01:25:54;12.88;;;11.57;;
18013;SDS011;9132;47.946;10.394;2022-07-22T01:28:21;13.35;;;12.05;;
18013;SDS011;9132;47.946;10.394;2022-07-22T01:30:47;14.65;;;13.35;;
18013;SDS011;9132;47.946;10.394;2022-07-22T01:33:14;14.90;;;13.52;;
18013;SDS011;9132;47.946;10.394;2022-07-22T01:35:41;13.80;;;12.55;;
18013;SDS011;9132;47.946;10.394;2022-07-22T01:38:08;14.00;;;12.73;;
18013;SDS011;9132;47.946;10.394;2022-07-22T01:40:35;13.73;;;12.43;;
18013;SDS011;9132;47.946;10.394;2022-07-22T01:43:01;13.77;;;12.38;;
18013;SDS011;9132;47.946;10.394;2022-07-22T01:45:27;13.75;;;12.40;;
18013;SDS011;9132;47.946;10.394;2022-07-22T01:47:54;12.95;;;11.75;;
18013;SDS011;9132;47.946;10.394;2022-07-22T01:50:20;12.95;;;11.75;;
18013;SDS011;9132;47.946;10.394;2022-07-22T01:52:46;13.60;;;12.27;;
18013;SDS011;9132;47.946;10.394;2022-07-22T01:55:14;13.38;;;12.10;;
18013;SDS011;9132;47.946;10.394;2022-07-22T01:57:40;13.55;;;12.15;;
18013;SDS011;9132;47.946;10.394;2022-07-22T02:00:07;13.32;;;12.00;;
18013;SDS011;9132;47.946;10.394;2022-07-22T02:02:34;12.55;;;11.35;;
18013;SDS011;9132;47.946;10.394;2022-07-22T02:05:00;12.98;;;11.68;;
18013;SDS011;9132;47.946;10.394;2022-07-22T02:07:27;13.23;;;11.90;;
18013;SDS011;9132;47.946;10.394;2022-07-22T02:09:53;12.95;;;11.75;;
18013;SDS011;9132;47.946;10.394;2022-07-22T02:12:21;12.48;;;11.27;;
18013;SDS011;9132;47.946;10.394;2022-07-22T02:14:47;13.32;;;12.02;;
18013;SDS011;9132;47.946;10.394;2022-07-22T02:17:13;14.35;;;12.52;;
18013;SDS011;9132;47.946;10.394;2022-07-22T02:19:40;12.52;;;11.27;;
18013;SDS011;9132;47.946;10.394;2022-07-22T02:22:07;13.63;;;12.25;;
18013;SDS011;9132;47.946;10.394;2022-07-22T02:24:34;13.43;;;12.02;;
18013;SDS011;9132;47.946;10.394;2022-07-22T02:27:00;13.88;;;12.45;;
18013;SDS011;9132;47.946;10.394;2022-07-22T02:29:28;14.38;;;12.90;;
18013;SDS011;9132;47.946;10.394;2022-07-22T02:31:54;14.32;;;12.13;;
18013;SDS011;9132;47.946;10.394;2022-07-22T02:34:21;13.32;;;12.13;;
18013;SDS011;9132;47.946;10.394;2022-07-22T02:36:47;13.55;;;12.13;;
18013;SDS011;9132;47.946;10.394;2022-07-22T02:39:13;14.18;;;12.88;;
18013;SDS011;9132;47.946;10.394;2022-07-22T02:41:40;13.77;;;12.38;;
18013;SDS011;9132;47.946;10.394;2022-07-22T02:44:06;13.77;;;12.48;;
18013;SDS011;9132;47.946;10.394;2022-07-22T02:46:34;12.75;;;11.55;;
18013;SDS011;9132;47.946;10.394;2022-07-22T02:49:00;15.05;;;12.50;;
18013;SDS011;9132;47.946;10.394;2022-07-22T02:51:27;13.32;;;11.90;;
18013;SDS011;9132;47.946;10.394;2022-07-22T02:53:53;13.35;;;12.10;;
18013;SDS011;9132;47.946;10.394;2022-07-22T02:56:20;13.65;;;12.35;;
18013;SDS011;9132;47.946;10.394;2022-07-22T02:58:46;14.63;;;13.13;;
18013;SDS011;9132;47.946;10.394;2022-07-22T03:01:12;13.32;;;12.13;;
18013;SDS011;9132;47.946;10.394;2022-07-22T03:03:41;13.48;;;12.23;;
18013;SDS011;9132;47.946;10.394;2022-07-22T03:06:07;13.73;;;12.40;;
18013;SDS011;9132;47.946;10.394;2022-07-22T03:08:33;14.13;;;12.75;;
18013;SDS011;9132;47.946;10.394;2022-07-22T03:10:59;14.23;;;12.82;;
18013;SDS011;9132;47.946;10.394;2022-07-22T03:13:26;14.00;;;12.57;;
18013;SDS011;9132;47.946;10.394;2022-07-22T03:15:52;16.00;;;14.48;;
18013;SDS011;9132;47.946;10.394;2022-07-22T03:18:18;14.30;;;13.03;;
18013;SDS011;9132;47.946;10.394;2022-07-22T03:20:46;13.93;;;12.40;;
18013;SDS011;9132;47.946;10.394;2022-07-22T03:23:12;13.80;;;12.40;;
18013;SDS011;9132;47.946;10.394;2022-07-22T03:25:39;13.80;;;12.23;;
18013;SDS011;9132;47.946;10.394;2022-07-22T03:28:05;14.95;;;13.38;;
18013;SDS011;9132;47.946;10.394;2022-07-22T03:30:31;14.23;;;12.73;;
18013;SDS011;9132;47.946;10.394;2022-07-22T03:32:58;14.50;;;13.00;;
18013;SDS011;9132;47.946;10.394;2022-07-22T03:35:24;13.80;;;12.50;;
18013;SDS011;9132;47.946;10.394;2022-07-22T03:37:52;14.15;;;12.65;;
18013;SDS011;9132;47.946;10.394;2022-07-22T03:40:18;13.87;;;12.47;;
18013;SDS011;9132;47.946;10.394;2022-07-22T03:42:44;14.20;;;12.80;;
18013;SDS011;9132;47.946;10.394;2022-07-22T03:45:11;14.53;;;13.07;;
18013;SDS011;9132;47.946;10.394;2022-07-22T03:47:37;14.60;;;13.20;;
18013;SDS011;9132;47.946;10.394;2022-07-22T03:50:04;13.70;;;12.40;;
18013;SDS011;9132;47.946;10.394;2022-07-22T03:52:30;14.17;;;12.87;;
18013;SDS011;9132;47.946;10.394;2022-07-22T03:54:58;14.67;;;13.17;;
18013;SDS011;9132;47.946;10.394;2022-07-22T03:57:24;14.10;;;12.60;;
18013;SDS011;9132;47.946;10.394;2022-07-22T03:59:53;15.43;;;13.80;;
18013;SDS011;9132;47.946;10.394;2022-07-22T04:02:19;14.63;;;13.13;;
18013;SDS011;9132;47.946;10.394;2022-07-22T04:04:45;14.53;;;13.10;;
18013;SDS011;9132;47.946;10.394;2022-07-22T04:07:12;14.03;;;12.73;;
18013;SDS011;9132;47.946;10.394;2022-07-22T04:09:38;15.13;;;13.60;;
18013;SDS011;9132;47.946;10.394;2022-07-22T04:12:06;15.97;;;13.70;;
18013;SDS011;9132;47.946;10.394;2022-07-22T04:14:32;15.17;;;13.67;;
18013;SDS011;9132;47.946;10.394;2022-07-22T04:16:59;16.07;;;14.57;;
18013;SDS011;9132;47.946;10.394;2022-07-22T04:19:25;14.80;;;13.30;;
18013;SDS011;9132;47.946;10.394;2022-07-22T04:21:51;16.80;;;14.07;;
18013;SDS011;9132;47.946;10.394;2022-07-22T04:24:18;16.13;;;14.10;;
18013;SDS011;9132;47.946;10.394;2022-07-22T04:26:44;15.40;;;14.00;;
18013;SDS011;9132;47.946;10.394;2022-07-22T04:29:12;16.10;;;14.40;;
18013;SDS011;9132;47.946;10.394;2022-07-22T04:31:38;16.67;;;14.75;;
18013;SDS011;9132;47.946;10.394;2022-07-22T04:34:04;16.37;;;14.23;;
18013;SDS011;9132;47.946;10.394;2022-07-22T04:36:31;15.03;;;13.30;;
18013;SDS011;9132;47.946;10.394;2022-07-22T04:38:57;16.33;;;13.83;;
18013;SDS011;9132;47.946;10.394;2022-07-22T04:41:23;15.10;;;13.33;;
18013;SDS011;9132;47.946;10.394;2022-07-22T04:43:50;15.20;;;13.30;;
18013;SDS011;9132;47.946;10.394;2022-07-22T04:46:18;16.23;;;14.50;;
18013;SDS011;9132;47.946;10.394;2022-07-22T04:48:44;15.30;;;13.82;;
18013;SDS011;9132;47.946;10.394;2022-07-22T04:51:10;14.68;;;13.20;;
18013;SDS011;9132;47.946;10.394;2022-07-22T04:53:37;15.65;;;14.05;;
18013;SDS011;9132;47.946;10.394;2022-07-22T04:56:03;15.07;;;13.67;;
18013;SDS011;9132;47.946;10.394;2022-07-22T04:58:30;15.98;;;13.63;;
18013;SDS011;9132;47.946;10.394;2022-07-22T05:00:56;16.08;;;13.93;;
18013;SDS011;9132;47.946;10.394;2022-07-22T05:03:24;16.00;;;14.20;;
18013;SDS011;9132;47.946;10.394;2022-07-22T05:05:51;16.67;;;14.18;;
18013;SDS011;9132;47.946;10.394;2022-07-22T05:08:17;16.13;;;14.02;;
18013;SDS011;9132;47.946;10.394;2022-07-22T05:10:43;15.82;;;14.43;;
18013;SDS011;9132;47.946;10.394;2022-07-22T05:13:11;16.42;;;14.73;;
18013;SDS011;9132;47.946;10.394;2022-07-22T05:15:38;15.27;;;13.65;;
18013;SDS011;9132;47.946;10.394;2022-07-22T05:18:04;16.50;;;14.40;;
18013;SDS011;9132;47.946;10.394;2022-07-22T05:20:32;15.02;;;13.60;;
18013;SDS011;9132;47.946;10.394;2022-07-22T05:22:58;15.40;;;13.85;;
18013;SDS011;9132;47.946;10.394;2022-07-22T05:25:25;15.93;;;14.43;;
18013;SDS011;9132;47.946;10.394;2022-07-22T05:27:51;15.70;;;14.20;;
18013;SDS011;9132;47.946;10.394;2022-07-22T05:30:18;16.73;;;14.65;;
18013;SDS011;9132;47.946;10.394;2022-07-22T05:32:45;17.52;;;14.43;;
18013;SDS011;9132;47.946;10.394;2022-07-22T05:35:11;15.90;;;14.38;;
18013;SDS011;9132;47.946;10.394;2022-07-22T05:37:39;15.18;;;13.60;;
18013;SDS011;9132;47.946;10.394;2022-07-22T05:40:06;14.68;;;13.27;;
18013;SDS011;9132;47.946;10.394;2022-07-22T05:42:33;17.63;;;14.68;;
18013;SDS011;9132;47.946;10.394;2022-07-22T05:44:59;16.70;;;13.43;;
18013;SDS011;9132;47.946;10.394;2022-07-22T05:47:25;15.02;;;13.48;;
18013;SDS011;9132;47.946;10.394;2022-07-22T05:49:52;15.50;;;13.30;;
18013;SDS011;9132;47.946;10.394;2022-07-22T05:52:18;14.80;;;13.30;;
18013;SDS011;9132;47.946;10.394;2022-07-22T05:54:46;18.40;;;14.13;;
18013;SDS011;9132;47.946;10.394;2022-07-22T05:57:12;15.45;;;13.95;;
18013;SDS011;9132;47.946;10.394;2022-07-22T05:59:38;15.38;;;13.90;;
18013;SDS011;9132;47.946;10.394;2022-07-22T06:02:05;14.35;;;12.93;;
18013;SDS011;9132;47.946;10.394;2022-07-22T06:04:32;13.43;;;12.25;;
18013;SDS011;9132;47.946;10.394;2022-07-22T06:06:58;15.25;;;13.75;;
18013;SDS011;9132;47.946;10.394;2022-07-22T06:09:24;14.68;;;13.27;;
18013;SDS011;9132;47.946;10.394;2022-07-22T06:11:52;13.75;;;11.98;;
18013;SDS011;9132;47.946;10.394;2022-07-22T06:14:18;13.23;;;11.93;;
18013;SDS011;9132;47.946;10.394;2022-07-22T06:16:45;11.73;;;10.30;;
18013;SDS011;9132;47.946;10.394;2022-07-22T06:19:11;12.48;;;11.25;;
18013;SDS011;9132;47.946;10.394;2022-07-22T06:21:37;11.95;;;10.88;;
18013;SDS011;9132;47.946;10.394;2022-07-22T06:24:05;12.75;;;11.48;;
18013;SDS011;9132;47.946;10.394;2022-07-22T06:26:31;11.73;;;10.68;;
18013;SDS011;9132;47.946;10.394;2022-07-22T06:28:59;11.07;;;10.05;;
18013;SDS011;9132;47.946;10.394;2022-07-22T06:31:25;11.48;;;10.38;;
18013;SDS011;9132;47.946;10.394;2022-07-22T06:33:51;11.88;;;10.27;;
18013;SDS011;9132;47.946;10.394;2022-07-22T06:36:18;11.30;;;10.20;;
18013;SDS011;9132;47.946;10.394;2022-07-22T06:38:44;10.98;;;9.93;;
18013;SDS011;9132;47.946;10.394;2022-07-22T06:41:10;10.60;;;9.68;;
18013;SDS011;9132;47.946;10.394;2022-07-22T06:43:38;10.90;;;9.93;;
18013;SDS011;9132;47.946;10.394;2022-07-22T06:46:06;9.95;;;9.02;;
18013;SDS011;9132;47.946;10.394;2022-07-22T06:48:32;11.13;;;9.90;;
18013;SDS011;9132;47.946;10.394;2022-07-22T06:50:58;11.20;;;9.95;;
18013;SDS011;9132;47.946;10.394;2022-07-22T06:53:25;10.40;;;9.50;;
18013;SDS011;9132;47.946;10.394;2022-07-22T06:55:51;11.25;;;10.25;;
18013;SDS011;9132;47.946;10.394;2022-07-22T06:58:17;11.43;;;10.18;;
18013;SDS011;9132;47.946;10.394;2022-07-22T07:00:44;12.05;;;10.85;;
18013;SDS011;9132;47.946;10.394;2022-07-22T07:03:12;11.70;;;10.38;;
18013;SDS011;9132;47.946;10.394;2022-07-22T07:05:38;10.82;;;9.73;;
18013;SDS011;9132;47.946;10.394;2022-07-22T07:08:04;12.35;;;11.15;;
18013;SDS011;9132;47.946;10.394;2022-07-22T07:10:31;12.88;;;11.43;;
18013;SDS011;9132;47.946;10.394;2022-07-22T07:12:57;11.13;;;10.02;;
18013;SDS011;9132;47.946;10.394;2022-07-22T07:15:24;12.00;;;10.90;;
18013;SDS011;9132;47.946;10.394;2022-07-22T07:17:50;13.18;;;11.70;;
18013;SDS011;9132;47.946;10.394;2022-07-22T07:20:19;12.68;;;11.40;;
18013;SDS011;9132;47.946;10.394;2022-07-22T07:22:45;13.57;;;12.15;;
18013;SDS011;9132;47.946;10.394;2022-07-22T07:25:12;12.25;;;11.05;;
18013;SDS011;9132;47.946;10.394;2022-07-22T07:27:38;12.57;;;11.38;;
18013;SDS011;9132;47.946;10.394;2022-07-22T07:30:05;13.52;;;12.32;;
18013;SDS011;9132;47.946;10.394;2022-07-22T07:32:32;13.07;;;11.82;;
18013;SDS011;9132;47.946;10.394;2022-07-22T07:34:58;12.88;;;11.65;;
18013;SDS011;9132;47.946;10.394;2022-07-22T07:37:26;13.40;;;12.20;;
18013;SDS011;9132;47.946;10.394;2022-07-22T07:39:52;13.73;;;12.32;;
18013;SDS011;9132;47.946;10.394;2022-07-22T07:42:18;13.48;;;12.23;;
18013;SDS011;9132;47.946;10.394;2022-07-22T07:44:45;13.30;;;11.40;;
18013;SDS011;9132;47.946;10.394;2022-07-22T07:47:11;12.20;;;11.00;;
18013;SDS011;9132;47.946;10.394;2022-07-22T07:49:42;12.30;;;11.02;;
18013;SDS011;9132;47.946;10.394;2022-07-22T07:52:08;12.75;;;11.50;;
18013;SDS011;9132;47.946;10.394;2022-07-22T07:54:37;13.00;;;11.57;;
18013;SDS011;9132;47.946;10.394;2022-07-22T07:57:05;14.25;;;12.57;;
18013;SDS011;9132;47.946;10.394;2022-07-22T07:59:31;12.23;;;11.02;;
18013;SDS011;9132;47.946;10.394;2022-07-22T08:01:57;12.50;;;11.20;;
18013;SDS011;9132;47.946;10.394;2022-07-22T08:04:24;15.77;;;12.00;;
18013;SDS011;9132;47.946;10.394;2022-07-22T08:06:51;13.50;;;11.18;;
18013;SDS011;9132;47.946;10.394;2022-07-22T08:09:17;13.27;;;12.07;;
18013;SDS011;9132;47.946;10.394;2022-07-22T08:11:45;12.88;;;11.38;;
18013;SDS011;9132;47.946;10.394;2022-07-22T08:14:11;13.18;;;10.18;;
18013;SDS011;9132;47.946;10.394;2022-07-22T08:16:37;12.50;;;11.20;;
18013;SDS011;9132;47.946;10.394;2022-07-22T08:19:04;12.32;;;11.13;;
18013;SDS011;9132;47.946;10.394;2022-07-22T08:21:30;11.60;;;10.52;;
18013;SDS011;9132;47.946;10.394;2022-07-22T08:23:56;11.63;;;10.68;;
18013;SDS011;9132;47.946;10.394;2022-07-22T08:26:23;11.85;;;10.65;;
18013;SDS011;9132;47.946;10.394;2022-07-22T08:28:51;12.20;;;10.95;;
18013;SDS011;9132;47.946;10.394;2022-07-22T08:31:17;11.05;;;9.80;;
18013;SDS011;9132;47.946;10.394;2022-07-22T08:33:43;11.55;;;10.35;;
18013;SDS011;9132;47.946;10.394;2022-07-22T08:36:10;11.02;;;9.98;;
18013;SDS011;9132;47.946;10.394;2022-07-22T08:38:36;10.00;;;9.10;;
18013;SDS011;9132;47.946;10.394;2022-07-22T08:41:03;10.93;;;9.90;;
18013;SDS011;9132;47.946;10.394;2022-07-22T08:43:29;10.00;;;9.10;;
18013;SDS011;9132;47.946;10.394;2022-07-22T08:45:57;11.70;;;10.55;;
18013;SDS011;9132;47.946;10.394;2022-07-22T08:48:24;9.50;;;8.60;;
18013;SDS011;9132;47.946;10.394;2022-07-22T08:50:51;10.52;;;9.00;;
18013;SDS011;9132;47.946;10.394;2022-07-22T08:53:17;9.63;;;8.57;;
18013;SDS011;9132;47.946;10.394;2022-07-22T08:55:44;10.15;;;8.95;;
18013;SDS011;9132;47.946;10.394;2022-07-22T08:58:10;9.10;;;8.15;;
18013;SDS011;9132;47.946;10.394;2022-07-22T09:00:37;9.15;;;8.35;;
18013;SDS011;9132;47.946;10.394;2022-07-22T09:03:17;9.30;;;8.40;;
18013;SDS011;9132;47.946;10.394;2022-07-22T09:05:43;8.45;;;7.75;;
18013;SDS011;9132;47.946;10.394;2022-07-22T09:08:10;8.18;;;7.38;;
18013;SDS011;9132;47.946;10.394;2022-07-22T09:10:36;8.35;;;7.28;;
18013;SDS011;9132;47.946;10.394;2022-07-22T09:13:03;8.00;;;7.30;;
18013;SDS011;9132;47.946;10.394;2022-07-22T09:15:30;7.97;;;7.28;;
18013;SDS011;9132;47.946;10.394;2022-07-22T09:17:58;8.73;;;7.63;;
18013;SDS011;9132;47.946;10.394;2022-07-22T09:20:26;8.60;;;7.80;;
18013;SDS011;9132;47.946;10.394;2022-07-22T09:22:52;7.80;;;7.10;;
18013;SDS011;9132;47.946;10.394;2022-07-22T09:25:20;6.80;;;6.07;;
18013;SDS011;9132;47.946;10.394;2022-07-22T09:27:47;9.32;;;7.70;;
18013;SDS011;9132;47.946;10.394;2022-07-22T09:30:13;9.52;;;7.53;;
18013;SDS011;9132;47.946;10.394;2022-07-22T09:32:40;8.07;;;7.28;;
18013;SDS011;9132;47.946;10.394;2022-07-22T09:35:07;10.65;;;6.78;;
18013;SDS011;9132;47.946;10.394;2022-07-22T09:37:36;6.35;;;5.85;;
18013;SDS011;9132;47.946;10.394;2022-07-22T09:40:11;7.70;;;6.35;;
18013;SDS011;9132;47.946;10.394;2022-07-22T09:42:43;7.47;;;6.78;;
18013;SDS011;9132;47.946;10.394;2022-07-22T09:45:09;7.30;;;6.68;;
18013;SDS011;9132;47.946;10.394;2022-07-22T09:47:36;7.60;;;6.82;;
18013;SDS011;9132;47.946;10.394;2022-07-22T09:50:03;7.35;;;6.35;;
18013;SDS011;9132;47.946;10.394;2022-07-22T09:52:29;6.38;;;5.78;;
18013;SDS011;9132;47.946;10.394;2022-07-22T09:54:57;6.85;;;6.25;;
18013;SDS011;9132;47.946;10.394;2022-07-22T09:57:23;7.07;;;6.40;;
18013;SDS011;9132;47.946;10.394;2022-07-22T09:59:49;7.20;;;6.50;;
18013;SDS011;9132;47.946;10.394;2022-07-22T10:02:16;7.60;;;6.80;;
18013;SDS011;9132;47.946;10.394;2022-07-22T10:04:42;6.57;;;5.90;;
18013;SDS011;9132;47.946;10.394;2022-07-22T10:07:12;6.50;;;5.90;;
18013;SDS011;9132;47.946;10.394;2022-07-22T10:09:38;9.48;;;6.78;;
18013;SDS011;9132;47.946;10.394;2022-07-22T10:12:07;7.07;;;6.38;;
18013;SDS011;9132;47.946;10.394;2022-07-22T10:14:34;6.95;;;6.25;;
18013;SDS011;9132;47.946;10.394;2022-07-22T10:17:00;6.70;;;6.10;;
18013;SDS011;9132;47.946;10.394;2022-07-22T10:19:27;7.40;;;6.55;;
18013;SDS011;9132;47.946;10.394;2022-07-22T10:21:53;6.22;;;5.60;;
18013;SDS011;9132;47.946;10.394;2022-07-22T10:24:19;7.20;;;6.38;;
18013;SDS011;9132;47.946;10.394;2022-07-22T10:26:49;6.28;;;5.70;;
18013;SDS011;9132;47.946;10.394;2022-07-22T10:35:18;8.70;;;6.53;;
18013;SDS011;9132;47.946;10.394;2022-07-22T10:37:38;7.65;;;6.13;;
18013;SDS011;9132;47.946;10.394;2022-07-22T10:40:09;7.65;;;6.28;;
18013;SDS011;9132;47.946;10.394;2022-07-22T10:45:17;6.57;;;6.00;;
18013;SDS011;9132;47.946;10.394;2022-07-22T10:47:52;7.15;;;6.15;;
18013;SDS011;9132;47.946;10.394;2022-07-22T10:50:39;8.18;;;6.68;;
18013;SDS011;9132;47.946;10.394;2022-07-22T10:53:06;7.10;;;6.40;;
18013;SDS011;9132;47.946;10.394;2022-07-22T10:55:34;7.10;;;6.35;;
18013;SDS011;9132;47.946;10.394;2022-07-22T10:58:00;7.43;;;6.70;;
18013;SDS011;9132;47.946;10.394;2022-07-22T11:00:26;7.45;;;6.75;;
18013;SDS011;9132;47.946;10.394;2022-07-22T11:02:53;7.18;;;6.53;;
18013;SDS011;9132;47.946;10.394;2022-07-22T11:05:24;8.27;;;6.72;;
18013;SDS011;9132;47.946;10.394;2022-07-22T11:07:51;7.13;;;6.43;;
18013;SDS011;9132;47.946;10.394;2022-07-22T11:10:18;8.30;;;6.28;;
18013;SDS011;9132;47.946;10.394;2022-07-22T11:12:45;7.22;;;6.10;;
18013;SDS011;9132;47.946;10.394;2022-07-22T11:15:12;6.93;;;6.25;;
18013;SDS011;9132;47.946;10.394;2022-07-22T11:17:39;6.80;;;6.22;;
18013;SDS011;9132;47.946;10.394;2022-07-22T11:20:06;7.10;;;6.28;;
18013;SDS011;9132;47.946;10.394;2022-07-22T11:22:33;6.75;;;6.25;;
18013;SDS011;9132;47.946;10.394;2022-07-22T11:25:03;7.93;;;7.05;;
18013;SDS011;9132;47.946;10.394;2022-07-22T11:27:29;6.70;;;6.10;;
18013;SDS011;9132;47.946;10.394;2022-07-22T11:29:56;6.90;;;6.20;;
18013;SDS011;9132;47.946;10.394;2022-07-22T11:32:23;7.10;;;6.32;;
18013;SDS011;9132;47.946;10.394;2022-07-22T11:34:50;6.97;;;6.32;;
18013;SDS011;9132;47.946;10.394;2022-07-22T11:37:17;6.85;;;5.93;;
18013;SDS011;9132;47.946;10.394;2022-07-22T11:39:44;7.25;;;6.65;;
18013;SDS011;9132;47.946;10.394;2022-07-22T11:42:12;6.43;;;5.82;;
18013;SDS011;9132;47.946;10.394;2022-07-22T11:44:39;6.97;;;6.30;;
18013;SDS011;9132;47.946;10.394;2022-07-22T11:47:06;7.32;;;6.65;;
18013;SDS011;9132;47.946;10.394;2022-07-22T11:49:33;8.18;;;6.43;;
18013;SDS011;9132;47.946;10.394;2022-07-22T11:52:00;6.68;;;6.03;;
18013;SDS011;9132;47.946;10.394;2022-07-22T11:54:27;7.53;;;6.75;;
18013;SDS011;9132;47.946;10.394;2022-07-22T11:56:54;6.80;;;6.10;;
18013;SDS011;9132;47.946;10.394;2022-07-22T11:59:22;6.38;;;5.82;;
18013;SDS011;9132;47.946;10.394;2022-07-22T12:01:49;6.95;;;6.35;;
18013;SDS011;9132;47.946;10.394;2022-07-22T12:04:16;6.65;;;6.05;;
18013;SDS011;9132;47.946;10.394;2022-07-22T12:06:43;7.45;;;6.28;;
18013;SDS011;9132;47.946;10.394;2022-07-22T12:09:11;6.70;;;6.07;;
18013;SDS011;9132;47.946;10.394;2022-07-22T12:11:38;6.82;;;6.00;;
18013;SDS011;9132;47.946;10.394;2022-07-22T12:14:06;6.53;;;5.93;;
18013;SDS011;9132;47.946;10.394;2022-07-22T12:16:34;7.47;;;6.78;;
18013;SDS011;9132;47.946;10.394;2022-07-22T12:19:02;8.38;;;6.15;;
18013;SDS011;9132;47.946;10.394;2022-07-22T12:21:30;8.25;;;6.75;;
18013;SDS011;9132;47.946;10.394;2022-07-22T12:23:58;7.40;;;6.68;;
18013;SDS011;9132;47.946;10.394;2022-07-22T12:26:39;8.02;;;5.88;;
18013;SDS011;9132;47.946;10.394;2022-07-22T12:29:12;7.43;;;6.82;;
18013;SDS011;9132;47.946;10.394;2022-07-22T12:31:42;6.65;;;6.05;;
18013;SDS011;9132;47.946;10.394;2022-07-22T12:34:09;8.95;;;6.30;;
18013;SDS011;9132;47.946;10.394;2022-07-22T12:36:35;6.80;;;6.10;;
18013;SDS011;9132;47.946;10.394;2022-07-22T12:39:10;7.88;;;7.18;;
18013;SDS011;9132;47.946;10.394;2022-07-22T12:41:43;6.57;;;6.07;;
18013;SDS011;9132;47.946;10.394;2022-07-22T12:44:14;6.90;;;6.20;;
18013;SDS011;9132;47.946;10.394;2022-07-22T12:46:45;6.68;;;6.18;;
18013;SDS011;9132;47.946;10.394;2022-07-22T12:49:11;7.60;;;6.85;;
18013;SDS011;9132;47.946;10.394;2022-07-22T12:51:38;7.05;;;6.43;;
18013;SDS011;9132;47.946;10.394;2022-07-22T12:54:04;6.72;;;6.20;;
18013;SDS011;9132;47.946;10.394;2022-07-22T12:56:30;9.32;;;6.45;;
18013;SDS011;9132;47.946;10.394;2022-07-22T12:58:58;7.35;;;6.72;;
18013;SDS011;9132;47.946;10.394;2022-07-22T13:01:24;7.07;;;6.38;;
18013;SDS011;9132;47.946;10.394;2022-07-22T13:03:52;7.07;;;6.10;;
18013;SDS011;9132;47.946;10.394;2022-07-22T13:06:18;7.40;;;6.65;;
18013;SDS011;9132;47.946;10.394;2022-07-22T13:08:45;7.70;;;6.80;;
18013;SDS011;9132;47.946;10.394;2022-07-22T13:11:11;7.03;;;6.43;;
18013;SDS011;9132;47.946;10.394;2022-07-22T13:13:38;7.10;;;6.50;;
18013;SDS011;9132;47.946;10.394;2022-07-22T13:16:05;6.80;;;6.20;;
18013;SDS011;9132;47.946;10.394;2022-07-22T13:18:31;6.25;;;5.65;;
18013;SDS011;9132;47.946;10.394;2022-07-22T13:20:59;6.78;;;6.07;;
18013;SDS011;9132;47.946;10.394;2022-07-22T13:23:25;6.72;;;6.13;;
18013;SDS011;9132;47.946;10.394;2022-07-22T13:25:51;6.97;;;6.38;;
18013;SDS011;9132;47.946;10.394;2022-07-22T13:28:18;7.38;;;6.68;;
18013;SDS011;9132;47.946;10.394;2022-07-22T13:30:44;7.30;;;6.60;;
18013;SDS011;9132;47.946;10.394;2022-07-22T13:33:10;6.95;;;6.15;;
18013;SDS011;9132;47.946;10.394;2022-07-22T13:35:37;6.97;;;6.35;;
18013;SDS011;9132;47.946;10.394;2022-07-22T13:38:05;6.90;;;6.25;;
18013;SDS011;9132;47.946;10.394;2022-07-22T13:40:31;6.53;;;5.97;;
18013;SDS011;9132;47.946;10.394;2022-07-22T13:42:57;7.03;;;6.32;;
18013;SDS011;9132;47.946;10.394;2022-07-22T13:45:24;7.28;;;6.57;;
18013;SDS011;9132;47.946;10.394;2022-07-22T13:47:50;7.22;;;6.38;;
18013;SDS011;9132;47.946;10.394;2022-07-22T13:50:16;7.13;;;6.53;;
18013;SDS011;9132;47.946;10.394;2022-07-22T13:52:42;10.23;;;6.60;;
18013;SDS011;9132;47.946;10.394;2022-07-22T13:55:12;8.50;;;6.85;;
18013;SDS011;9132;47.946;10.394;2022-07-22T13:57:39;7.05;;;6.32;;
18013;SDS011;9132;47.946;10.394;2022-07-22T14:00:06;6.63;;;5.95;;
18013;SDS011;9132;47.946;10.394;2022-07-22T14:02:33;6.80;;;6.20;;
18013;SDS011;9132;47.946;10.394;2022-07-22T14:04:59;6.72;;;6.22;;
18013;SDS011;9132;47.946;10.394;2022-07-22T14:07:26;6.90;;;5.95;;
18013;SDS011;9132;47.946;10.394;2022-07-22T14:09:52;6.63;;;6.10;;
18013;SDS011;9132;47.946;10.394;2022-07-22T14:12:20;6.72;;;6.22;;
18013;SDS011;9132;47.946;10.394;2022-07-22T14:14:46;6.70;;;6.20;;
18013;SDS011;9132;47.946;10.394;2022-07-22T14:17:12;6.95;;;6.35;;
18013;SDS011;9132;47.946;10.394;2022-07-22T14:19:39;7.53;;;6.82;;
18013;SDS011;9132;47.946;10.394;2022-07-22T14:22:05;7.20;;;6.60;;
18013;SDS011;9132;47.946;10.394;2022-07-22T14:24:31;6.85;;;6.22;;
18013;SDS011;9132;47.946;10.394;2022-07-22T14:26:57;6.50;;;5.93;;
18013;SDS011;9132;47.946;10.394;2022-07-22T14:29:25;7.38;;;6.57;;
18013;SDS011;9132;47.946;10.394;2022-07-22T14:31:51;7.22;;;6.63;;
18013;SDS011;9132;47.946;10.394;2022-07-22T14:34:18;7.07;;;6.30;;
18013;SDS011;9132;47.946;10.394;2022-07-22T14:36:44;6.30;;;5.72;;